Time;durP1;ratioP1;P1;durP2;ratioP2;P2;SDS_P1;SDS_P2;PMS_P1;PMS_P2;Temp;Humidity;BMP_temperature;BMP_pressure;BME280_temperature;BME280_humidity;BME280_pressure;Samples;Min_cycle;Max_cycle;Signal;HPM_P1;HPM_P2
2022/04/06 00:01:01;;;;;;;7.22;1.15;;;;;;;;;;5087094;28;20024;-75
2022/04/06 00:03:26;;;;;;;15.68;1.98;;;;;;;;;;5069519;28;20021;-73
2022/04/06 00:05:53;;;;;;;12.50;1.52;;;;;;;;;;5092532;28;20062;-75
2022/04/06 00:08:18;;;;;;;8.57;1.77;;;;;;;;;;5085845;28;20020;-75
2022/04/06 00:10:44;;;;;;;10.57;1.33;;;;;;;;;;5069762;28;20029;-74
2022/04/06 00:13:09;;;;;;;11.90;1.67;;;;;;;;;;5079591;28;20028;-75
2022/04/06 00:15:35;;;;;;;10.10;1.35;;;;;;;;;;5086976;28;20110;-75
2022/04/06 00:18:00;;;;;;;6.55;0.82;;;;;;;;;;5073148;28;20160;-75
2022/04/06 00:20:26;;;;;;;12.30;1.58;;;;;;;;;;5064409;28;20048;-75
2022/04/06 00:22:51;;;;;;;6.55;1.10;;;;;;;;;;5067592;28;20280;-75
2022/04/06 00:25:17;;;;;;;8.75;1.30;;;;;;;;;;5082980;28;20017;-76
2022/04/06 00:27:42;;;;;;;7.43;0.95;;;;;;;;;;5085830;28;20181;-75
2022/04/06 00:30:08;;;;;;;5.22;1.13;;;;;;;;;;5080518;28;20342;-75
2022/04/06 00:32:34;;;;;;;11.95;1.45;;;;;;;;;;5082968;28;20092;-76
2022/04/06 00:37:44;;;;;;;8.65;0.88;;;;;;;;;;5084925;28;20290;-75
2022/04/06 00:40:09;;;;;;;9.07;1.38;;;;;;;;;;5070885;28;20024;-75
2022/04/06 00:42:36;;;;;;;5.03;1.00;;;;;;;;;;5080542;28;20572;-75
2022/04/06 00:45:02;;;;;;;4.25;0.60;;;;;;;;;;5083280;28;20036;-74
2022/04/06 00:47:28;;;;;;;6.40;0.70;;;;;;;;;;5091615;28;20109;-74
2022/04/06 00:49:53;;;;;;;4.55;0.63;;;;;;;;;;5081755;28;20025;-75
2022/04/06 00:52:20;;;;;;;9.23;1.13;;;;;;;;;;5079561;28;20047;-74
2022/04/06 00:54:47;;;;;;;7.00;1.02;;;;;;;;;;5085129;28;20024;-77
2022/04/06 00:57:16;;;;;;;10.00;1.25;;;;;;;;;;5081669;28;20032;-75
2022/04/06 00:59:42;;;;;;;9.68;0.98;;;;;;;;;;5079459;28;20041;-75
2022/04/06 01:02:08;;;;;;;11.85;0.93;;;;;;;;;;5088018;28;20092;-75
2022/04/06 01:04:34;;;;;;;8.18;1.00;;;;;;;;;;5081531;28;20016;-75
2022/04/06 01:07:00;;;;;;;7.93;1.23;;;;;;;;;;5078824;28;20154;-75
2022/04/06 01:09:26;;;;;;;7.97;1.52;;;;;;;;;;5063396;28;20432;-75
2022/04/06 01:11:52;;;;;;;7.88;0.90;;;;;;;;;;5079775;28;20235;-75
2022/04/06 01:14:19;;;;;;;8.45;1.15;;;;;;;;;;5099496;28;20043;-75
2022/04/06 01:17:02;;;;;;;10.00;1.10;;;;;;;;;;5076781;28;20281;-75
2022/04/06 01:19:34;;;;;;;6.18;1.38;;;;;;;;;;5084212;28;20028;-75
2022/04/06 01:22:01;;;;;;;5.35;1.05;;;;;;;;;;5084785;28;20032;-75
2022/04/06 01:24:27;;;;;;;17.50;1.42;;;;;;;;;;5082844;28;20020;-75
2022/04/06 01:26:53;;;;;;;4.07;0.75;;;;;;;;;;5083242;28;20391;-75
2022/04/06 01:29:19;;;;;;;6.40;0.77;;;;;;;;;;5081645;28;20023;-75
2022/04/06 01:31:45;;;;;;;6.05;1.25;;;;;;;;;;5078326;28;20017;-74
2022/04/06 01:34:11;;;;;;;11.18;1.60;;;;;;;;;;5067667;28;20027;-76
2022/04/06 01:36:36;;;;;;;11.10;0.80;;;;;;;;;;5067732;28;20171;-77
2022/04/06 01:39:02;;;;;;;3.45;0.57;;;;;;;;;;5066511;28;20032;-76
2022/04/06 01:41:32;;;;;;;5.57;0.95;;;;;;;;;;5072349;28;20023;-76
2022/04/06 01:43:58;;;;;;;6.05;0.80;;;;;;;;;;5078351;28;20020;-76
2022/04/06 01:46:23;;;;;;;6.68;0.88;;;;;;;;;;5078340;28;20046;-76
2022/04/06 01:54:17;;;;;;;6.10;0.55;;;;;;;;;;5065007;28;20027;-75
2022/04/06 01:56:42;;;;;;;11.10;1.00;;;;;;;;;;5087364;28;20092;-75
2022/04/06 01:59:08;;;;;;;9.73;1.23;;;;;;;;;;5076273;28;20011;-74
2022/04/06 02:01:36;;;;;;;6.53;1.17;;;;;;;;;;5083014;28;20039;-75
2022/04/06 02:04:06;;;;;;;11.15;1.20;;;;;;;;;;5079479;28;20178;-75
2022/04/06 02:06:32;;;;;;;3.90;1.15;;;;;;;;;;5077936;28;20159;-75
2022/04/06 02:08:58;;;;;;;4.63;0.60;;;;;;;;;;5079754;28;20012;-75
2022/04/06 02:11:24;;;;;;;5.63;1.00;;;;;;;;;;5084148;28;20019;-75
2022/04/06 02:13:49;;;;;;;6.03;1.70;;;;;;;;;;5085322;28;20124;-75
2022/04/06 02:16:15;;;;;;;11.60;1.42;;;;;;;;;;5080719;28;20621;-76
2022/04/06 02:18:41;;;;;;;6.18;0.68;;;;;;;;;;5099010;28;20038;-74
2022/04/06 02:21:06;;;;;;;15.45;1.33;;;;;;;;;;5083840;28;20090;-75
2022/04/06 02:23:32;;;;;;;6.68;1.02;;;;;;;;;;5063064;28;20063;-76
2022/04/06 02:25:57;;;;;;;10.75;1.05;;;;;;;;;;5058391;28;20309;-75
2022/04/06 02:28:23;;;;;;;9.05;1.25;;;;;;;;;;5045721;28;20021;-75
2022/04/06 02:30:48;;;;;;;8.00;1.40;;;;;;;;;;5059943;28;20021;-76
2022/04/06 02:33:14;;;;;;;14.45;1.17;;;;;;;;;;5059107;28;20028;-75
2022/04/06 02:35:39;;;;;;;10.15;0.93;;;;;;;;;;5079773;28;20171;-76
2022/04/06 02:38:05;;;;;;;9.90;1.80;;;;;;;;;;5097468;28;20040;-75
2022/04/06 02:40:32;;;;;;;13.00;0.90;;;;;;;;;;5079496;28;20254;-76
2022/04/06 02:42:58;;;;;;;9.90;1.10;;;;;;;;;;5052772;28;20099;-76
2022/04/06 02:45:23;;;;;;;14.50;1.20;;;;;;;;;;5063245;28;20020;-76
2022/04/06 02:47:49;;;;;;;6.45;0.82;;;;;;;;;;5077824;28;20132;-77
2022/04/06 02:50:15;;;;;;;11.45;1.08;;;;;;;;;;5063520;28;20116;-75
2022/04/06 02:52:41;;;;;;;8.27;1.20;;;;;;;;;;5081399;28;20016;-75
2022/04/06 02:55:09;;;;;;;6.30;1.08;;;;;;;;;;5061892;28;20024;-75
2022/04/06 02:57:34;;;;;;;18.98;1.85;;;;;;;;;;5077777;28;20133;-75
2022/04/06 03:00:00;;;;;;;29.90;2.33;;;;;;;;;;5083551;28;20338;-76
2022/04/06 03:02:25;;;;;;;10.35;1.02;;;;;;;;;;5062371;28;20088;-76
2022/04/06 03:04:51;;;;;;;9.00;1.17;;;;;;;;;;5081783;28;20021;-77
2022/04/06 03:07:18;;;;;;;15.10;2.05;;;;;;;;;;5081698;28;20073;-75
2022/04/06 03:09:44;;;;;;;18.88;1.80;;;;;;;;;;5083663;28;20122;-75
2022/04/06 03:12:10;;;;;;;18.63;1.90;;;;;;;;;;5079184;28;20193;-75
2022/04/06 03:14:35;;;;;;;6.57;0.75;;;;;;;;;;5061752;28;20496;-76
2022/04/06 03:17:01;;;;;;;10.20;0.73;;;;;;;;;;5050704;28;20032;-75
2022/04/06 03:19:26;;;;;;;8.20;0.98;;;;;;;;;;5082846;28;20059;-74
2022/04/06 03:21:52;;;;;;;6.95;1.00;;;;;;;;;;5079107;28;20089;-74
2022/04/06 03:24:17;;;;;;;4.85;1.08;;;;;;;;;;5068884;28;20283;-75
2022/04/06 03:26:43;;;;;;;7.57;0.85;;;;;;;;;;5080929;28;20218;-76
2022/04/06 03:29:08;;;;;;;7.18;0.90;;;;;;;;;;5064111;28;20043;-75
2022/04/06 03:31:34;;;;;;;11.73;1.15;;;;;;;;;;5086064;28;20039;-74
2022/04/06 03:33:59;;;;;;;10.18;1.15;;;;;;;;;;5077348;28;20027;-75
2022/04/06 03:36:25;;;;;;;9.57;2.30;;;;;;;;;;5074254;28;20056;-75
2022/04/06 03:38:50;;;;;;;7.82;1.23;;;;;;;;;;5062296;28;20293;-74
2022/04/06 03:41:15;;;;;;;15.27;1.83;;;;;;;;;;5099908;28;20021;-75
2022/04/06 03:43:41;;;;;;;16.58;3.22;;;;;;;;;;5082749;28;20051;-74
2022/04/06 03:46:07;;;;;;;16.45;2.15;;;;;;;;;;5085870;28;20044;-74
2022/04/06 03:48:32;;;;;;;19.88;1.48;;;;;;;;;;5070398;28;20164;-76
2022/04/06 03:50:58;;;;;;;20.88;1.90;;;;;;;;;;5078202;28;20024;-75
2022/04/06 03:53:24;;;;;;;12.85;1.83;;;;;;;;;;5085527;28;20024;-74
2022/04/06 03:55:49;;;;;;;11.13;1.15;;;;;;;;;;5081321;28;20079;-75
2022/04/06 03:58:15;;;;;;;14.98;1.13;;;;;;;;;;5088004;28;20012;-73
2022/04/06 04:00:41;;;;;;;6.28;1.25;;;;;;;;;;5098657;28;20269;-74
2022/04/06 04:03:06;;;;;;;14.90;1.58;;;;;;;;;;5088749;28;20372;-75
2022/04/06 04:05:32;;;;;;;11.85;1.10;;;;;;;;;;5064959;28;20051;-74
2022/04/06 04:07:57;;;;;;;10.85;1.58;;;;;;;;;;5079556;28;20028;-75
2022/04/06 04:10:23;;;;;;;10.27;1.70;;;;;;;;;;5082972;28;20100;-75
2022/04/06 04:12:49;;;;;;;16.85;1.45;;;;;;;;;;5062077;28;20017;-76
2022/04/06 04:15:15;;;;;;;13.88;2.10;;;;;;;;;;5078140;28;20116;-75
2022/04/06 04:17:40;;;;;;;17.35;2.00;;;;;;;;;;5083089;28;20023;-74
2022/04/06 04:20:07;;;;;;;17.73;1.60;;;;;;;;;;5070979;28;20070;-74
2022/04/06 04:22:32;;;;;;;14.57;1.85;;;;;;;;;;5102392;28;20130;-75
2022/04/06 04:24:58;;;;;;;18.02;3.33;;;;;;;;;;5084283;28;20020;-77
2022/04/06 04:27:23;;;;;;;19.40;1.88;;;;;;;;;;5073359;28;20051;-74
2022/04/06 04:29:49;;;;;;;12.55;1.33;;;;;;;;;;5082833;28;20013;-75
2022/04/06 04:32:17;;;;;;;10.73;1.55;;;;;;;;;;5079734;28;20017;-74
2022/04/06 04:34:43;;;;;;;19.30;2.25;;;;;;;;;;5078010;28;20073;-74
2022/04/06 04:37:09;;;;;;;11.07;1.25;;;;;;;;;;5079217;28;20078;-75
2022/04/06 04:39:35;;;;;;;9.00;1.15;;;;;;;;;;5099784;28;20271;-74
2022/04/06 04:42:00;;;;;;;4.30;0.60;;;;;;;;;;5082240;28;20020;-74
2022/04/06 04:44:26;;;;;;;4.07;0.50;;;;;;;;;;5083835;28;20523;-76
2022/04/06 04:46:51;;;;;;;3.22;0.70;;;;;;;;;;5062666;28;20271;-75
2022/04/06 04:49:17;;;;;;;5.68;0.63;;;;;;;;;;5068424;28;20086;-74
2022/04/06 04:51:42;;;;;;;2.78;0.43;;;;;;;;;;5077748;28;20088;-74
2022/04/06 04:54:08;;;;;;;7.00;0.70;;;;;;;;;;5082463;28;20039;-75
2022/04/06 04:56:34;;;;;;;9.88;0.65;;;;;;;;;;5082747;28;20012;-76
2022/04/06 04:59:00;;;;;;;6.20;0.82;;;;;;;;;;5064703;28;20179;-75
2022/04/06 05:01:26;;;;;;;2.47;0.47;;;;;;;;;;5084373;28;20066;-74
2022/04/06 05:03:51;;;;;;;3.55;0.57;;;;;;;;;;5083620;28;20169;-76
2022/04/06 05:06:17;;;;;;;3.05;0.50;;;;;;;;;;5064564;28;20213;-75
2022/04/06 05:08:43;;;;;;;8.23;0.73;;;;;;;;;;5061945;28;20020;-75
2022/04/06 05:11:09;;;;;;;4.03;0.50;;;;;;;;;;5082660;28;20051;-74
2022/04/06 05:13:34;;;;;;;0.75;0.22;;;;;;;;;;5062195;28;20109;-75
2022/04/06 05:16:00;;;;;;;3.45;0.77;;;;;;;;;;5061898;28;20024;-74
2022/04/06 05:18:26;;;;;;;2.05;0.30;;;;;;;;;;5080627;28;20023;-75
2022/04/06 05:20:53;;;;;;;2.53;0.45;;;;;;;;;;5081406;28;20203;-75
2022/04/06 05:23:19;;;;;;;2.83;0.30;;;;;;;;;;5082099;28;20013;-74
2022/04/06 05:25:44;;;;;;;1.90;0.38;;;;;;;;;;5078971;28;20023;-74
2022/04/06 05:28:10;;;;;;;2.10;0.65;;;;;;;;;;5097959;28;20017;-75
2022/04/06 05:30:38;;;;;;;3.97;0.50;;;;;;;;;;5083879;28;20018;-75
2022/04/06 05:33:03;;;;;;;4.18;0.55;;;;;;;;;;5080781;28;20047;-74
2022/04/06 05:35:29;;;;;;;9.63;0.40;;;;;;;;;;5081080;28;20013;-75
2022/04/06 05:37:57;;;;;;;3.83;0.32;;;;;;;;;;5091432;28;20020;-74
2022/04/06 05:40:24;;;;;;;2.10;0.32;;;;;;;;;;5085042;28;20024;-75
2022/04/06 05:42:49;;;;;;;3.45;0.40;;;;;;;;;;5076428;28;20025;-75
2022/04/06 05:45:15;;;;;;;2.72;0.28;;;;;;;;;;5063454;28;20027;-74
2022/04/06 05:47:42;;;;;;;5.03;0.40;;;;;;;;;;5085517;28;20042;-75
2022/04/06 05:50:09;;;;;;;1.13;0.13;;;;;;;;;;5081968;28;20304;-76
2022/04/06 05:52:35;;;;;;;0.90;0.30;;;;;;;;;;5077077;28;20472;-75
2022/04/06 05:55:01;;;;;;;0.65;0.20;;;;;;;;;;5076734;28;20039;-76
2022/04/06 05:57:26;;;;;;;1.65;0.20;;;;;;;;;;5078118;28;20012;-75
2022/04/06 05:59:52;;;;;;;1.52;0.28;;;;;;;;;;5061068;28;20025;-75
2022/04/06 06:02:19;;;;;;;0.93;0.20;;;;;;;;;;5060506;28;20024;-77
2022/04/06 06:04:44;;;;;;;0.35;0.20;;;;;;;;;;5078985;28;20144;-77
2022/04/06 06:07:10;;;;;;;2.75;0.40;;;;;;;;;;5076788;28;20031;-77
2022/04/06 06:09:36;;;;;;;1.20;0.30;;;;;;;;;;5049841;28;20013;-78
2022/04/06 06:12:03;;;;;;;0.55;0.30;;;;;;;;;;5078093;28;20036;-77
2022/04/06 06:14:29;;;;;;;1.63;0.30;;;;;;;;;;5042297;28;20047;-77
2022/04/06 06:16:58;;;;;;;0.25;0.20;;;;;;;;;;5076690;28;20040;-78
2022/04/06 06:19:24;;;;;;;1.10;0.32;;;;;;;;;;5061128;28;20131;-76
2022/04/06 06:21:49;;;;;;;3.30;0.50;;;;;;;;;;5098145;28;20048;-77
2022/04/06 06:24:15;;;;;;;3.45;0.30;;;;;;;;;;5063904;28;20634;-78
2022/04/06 06:26:43;;;;;;;1.15;0.20;;;;;;;;;;5080702;28;20031;-78
2022/04/06 06:29:09;;;;;;;1.40;0.40;;;;;;;;;;5081654;28;20012;-78
2022/04/06 06:31:34;;;;;;;1.13;0.30;;;;;;;;;;5080666;28;20297;-77
2022/04/06 06:34:01;;;;;;;0.82;0.30;;;;;;;;;;5076285;28;20177;-77
2022/04/06 06:36:26;;;;;;;1.08;0.60;;;;;;;;;;5077661;28;20023;-77
2022/04/06 06:38:53;;;;;;;1.75;0.45;;;;;;;;;;5077750;28;20040;-77
2022/04/06 06:41:20;;;;;;;0.35;0.30;;;;;;;;;;5074398;28;20219;-76
2022/04/06 06:43:48;;;;;;;2.80;0.93;;;;;;;;;;5078642;28;20079;-76
2022/04/06 06:46:15;;;;;;;5.30;1.02;;;;;;;;;;5072243;28;20270;-77
2022/04/06 06:48:40;;;;;;;1.88;0.50;;;;;;;;;;5091127;28;20109;-78
2022/04/06 06:51:06;;;;;;;2.60;0.40;;;;;;;;;;5059122;28;20008;-77
2022/04/06 06:53:31;;;;;;;2.45;0.55;;;;;;;;;;5076352;28;20020;-78
2022/04/06 06:55:57;;;;;;;2.90;0.40;;;;;;;;;;5064341;28;20040;-76
2022/04/06 06:58:22;;;;;;;6.88;0.80;;;;;;;;;;5059937;28;20259;-77
2022/04/06 07:00:48;;;;;;;2.17;0.47;;;;;;;;;;5086459;28;20023;-78
2022/04/06 07:03:14;;;;;;;0.43;0.17;;;;;;;;;;5063045;28;20020;-77
2022/04/06 07:05:39;;;;;;;1.75;0.32;;;;;;;;;;5064025;28;20099;-77
2022/04/06 07:08:05;;;;;;;1.52;0.68;;;;;;;;;;5042554;28;20025;-78
2022/04/06 07:10:31;;;;;;;1.42;0.22;;;;;;;;;;5062764;28;20229;-77
2022/04/06 07:12:56;;;;;;;3.28;0.60;;;;;;;;;;5076742;28;20016;-77
2022/04/06 07:15:25;;;;;;;9.68;1.63;;;;;;;;;;5077190;28;20156;-74
2022/04/06 07:17:55;;;;;;;8.48;0.50;;;;;;;;;;5078002;28;20020;-78
2022/04/06 07:20:26;;;;;;;3.72;0.40;;;;;;;;;;5079728;28;20169;-77
2022/04/06 07:22:52;;;;;;;2.42;0.40;;;;;;;;;;5075280;28;20101;-77
2022/04/06 07:25:19;;;;;;;2.25;0.40;;;;;;;;;;5060482;28;20323;-77
2022/04/06 07:27:44;;;;;;;3.97;0.50;;;;;;;;;;5078696;28;20017;-77
2022/04/06 07:30:14;;;;;;;0.25;0.20;;;;;;;;;;5088497;28;20031;-78
2022/04/06 07:32:39;;;;;;;2.83;0.70;;;;;;;;;;5102910;28;20044;-75
2022/04/06 07:35:07;;;;;;;3.63;0.30;;;;;;;;;;5080607;28;20031;-75
2022/04/06 07:37:43;;;;;;;2.72;0.52;;;;;;;;;;5065703;28;20015;-75
2022/04/06 07:40:10;;;;;;;3.13;0.43;;;;;;;;;;5079425;28;20048;-77
2022/04/06 07:42:37;;;;;;;2.75;1.00;;;;;;;;;;5080583;28;20020;-76
2022/04/06 07:45:04;;;;;;;3.25;0.98;;;;;;;;;;5059278;28;20024;-76
2022/04/06 07:47:33;;;;;;;3.10;0.80;;;;;;;;;;5062452;28;20263;-76
2022/04/06 07:50:00;;;;;;;0.98;0.40;;;;;;;;;;5079792;28;20307;-77
2022/04/06 07:52:27;;;;;;;3.33;0.57;;;;;;;;;;5076053;28;20005;-79
2022/04/06 07:54:52;;;;;;;7.35;1.73;;;;;;;;;;5077320;28;20069;-76
2022/04/06 07:57:24;;;;;;;2.08;0.50;;;;;;;;;;5080371;28;20071;-76
2022/04/06 07:59:50;;;;;;;2.80;0.30;;;;;;;;;;5082038;28;20035;-76
2022/04/06 08:02:16;;;;;;;2.00;0.40;;;;;;;;;;5079805;28;20086;-74
2022/04/06 08:04:42;;;;;;;2.88;0.40;;;;;;;;;;5087480;28;20013;-75
2022/04/06 08:07:07;;;;;;;1.83;0.60;;;;;;;;;;5053235;28;20040;-75
2022/04/06 08:09:33;;;;;;;2.92;0.30;;;;;;;;;;5079555;28;20013;-76
2022/04/06 08:12:00;;;;;;;1.33;0.30;;;;;;;;;;5058738;28;20039;-75
2022/04/06 08:14:26;;;;;;;3.45;1.05;;;;;;;;;;5078217;28;20017;-75
2022/04/06 08:16:52;;;;;;;3.42;0.68;;;;;;;;;;5080468;28;20061;-76
2022/04/06 08:19:17;;;;;;;5.20;0.63;;;;;;;;;;5081251;28;20083;-76
2022/04/06 08:21:43;;;;;;;2.75;0.57;;;;;;;;;;5072858;28;20211;-76
2022/04/06 08:24:08;;;;;;;2.55;0.73;;;;;;;;;;5060906;28;20025;-76
2022/04/06 08:26:34;;;;;;;2.30;1.33;;;;;;;;;;5080365;28;20020;-76
2022/04/06 08:28:59;;;;;;;2.95;0.82;;;;;;;;;;5065382;28;20092;-75
2022/04/06 08:31:25;;;;;;;1.92;0.77;;;;;;;;;;5081607;28;20013;-75
2022/04/06 08:33:50;;;;;;;5.05;0.70;;;;;;;;;;5084208;28;20083;-75
2022/04/06 08:36:16;;;;;;;3.20;0.50;;;;;;;;;;5079737;28;20020;-76
2022/04/06 08:38:43;;;;;;;2.95;0.43;;;;;;;;;;5085351;28;20023;-76
2022/04/06 08:41:10;;;;;;;3.17;0.57;;;;;;;;;;5086722;28;20013;-76
2022/04/06 08:43:35;;;;;;;5.63;0.90;;;;;;;;;;5079043;28;20259;-77
2022/04/06 08:46:02;;;;;;;2.88;0.47;;;;;;;;;;5091975;28;20016;-76
2022/04/06 08:48:29;;;;;;;6.07;0.60;;;;;;;;;;5082596;28;20163;-75
2022/04/06 08:50:58;;;;;;;6.65;0.60;;;;;;;;;;5080862;28;20102;-76
2022/04/06 08:53:24;;;;;;;4.97;0.63;;;;;;;;;;5084685;28;20023;-76
2022/04/06 08:55:49;;;;;;;7.82;0.98;;;;;;;;;;5079983;28;20025;-76
2022/04/06 08:58:15;;;;;;;3.58;0.80;;;;;;;;;;5082519;28;20094;-75
2022/04/06 09:00:41;;;;;;;7.45;0.80;;;;;;;;;;5083919;28;20022;-76
2022/04/06 09:03:07;;;;;;;2.60;0.55;;;;;;;;;;5087713;28;20031;-75
2022/04/06 09:05:34;;;;;;;5.60;0.68;;;;;;;;;;5082733;28;20162;-76
2022/04/06 09:08:01;;;;;;;3.10;0.77;;;;;;;;;;5082950;28;20019;-76
2022/04/06 09:10:39;;;;;;;3.60;0.90;;;;;;;;;;5082136;28;20216;-75
2022/04/06 09:13:09;;;;;;;5.53;0.60;;;;;;;;;;5082280;28;20044;-75
2022/04/06 09:15:35;;;;;;;5.95;0.68;;;;;;;;;;5086382;28;20017;-76
2022/04/06 09:18:01;;;;;;;2.53;0.40;;;;;;;;;;5082168;28;20039;-76
2022/04/06 09:20:27;;;;;;;2.08;0.68;;;;;;;;;;5084367;28;20167;-76
2022/04/06 09:22:53;;;;;;;13.15;0.63;;;;;;;;;;5069058;28;20024;-76
2022/04/06 09:25:21;;;;;;;5.90;0.88;;;;;;;;;;5050166;28;20076;-75
2022/04/06 09:27:47;;;;;;;6.32;0.75;;;;;;;;;;5087308;28;20020;-75
2022/04/06 09:30:13;;;;;;;7.10;0.73;;;;;;;;;;5086386;28;20039;-76
2022/04/06 09:32:42;;;;;;;5.38;0.90;;;;;;;;;;5070272;28;20074;-75
2022/04/06 09:35:25;;;;;;;4.43;1.70;;;;;;;;;;5080524;28;20418;-75
2022/04/06 09:38:08;;;;;;;3.90;0.60;;;;;;;;;;5081942;28;20267;-76
2022/04/06 09:40:34;;;;;;;5.55;0.68;;;;;;;;;;5067480;28;20019;-77
2022/04/06 09:42:59;;;;;;;7.57;0.50;;;;;;;;;;5065568;28;20112;-76
2022/04/06 09:48:12;;;;;;;2.78;0.60;;;;;;;;;;5080595;28;20026;-76
2022/04/06 09:50:38;;;;;;;8.65;1.10;;;;;;;;;;5077350;28;20043;-76
2022/04/06 09:53:06;;;;;;;16.77;1.17;;;;;;;;;;5097430;28;21087;-76
2022/04/06 09:55:31;;;;;;;5.68;0.95;;;;;;;;;;5094039;28;20149;-76
2022/04/06 09:57:59;;;;;;;0.98;0.30;;;;;;;;;;5081396;28;20275;-75
2022/04/06 10:00:29;;;;;;;3.05;0.70;;;;;;;;;;5084026;28;20039;-76
2022/04/06 10:03:05;;;;;;;5.68;0.85;;;;;;;;;;5072538;28;20037;-75
2022/04/06 10:05:31;;;;;;;5.25;0.75;;;;;;;;;;5065378;28;20016;-76
2022/04/06 10:08:01;;;;;;;6.15;0.80;;;;;;;;;;5082855;28;20093;-76
2022/04/06 10:10:27;;;;;;;5.43;0.73;;;;;;;;;;5081217;28;20017;-75
2022/04/06 10:12:53;;;;;;;2.42;0.55;;;;;;;;;;5073529;28;20195;-76
2022/04/06 10:15:20;;;;;;;1.92;0.30;;;;;;;;;;5081096;28;20031;-76
2022/04/06 10:17:45;;;;;;;3.33;0.85;;;;;;;;;;5081895;28;20016;-75
2022/04/06 10:20:23;;;;;;;4.05;0.43;;;;;;;;;;5081237;28;20295;-76
2022/04/06 10:23:10;;;;;;;2.15;0.43;;;;;;;;;;5081206;28;20024;-76
2022/04/06 10:25:57;;;;;;;5.10;0.50;;;;;;;;;;5093392;28;20040;-75
2022/04/06 10:28:22;;;;;;;4.13;0.50;;;;;;;;;;5083838;28;20321;-76
2022/04/06 10:31:16;;;;;;;2.85;0.45;;;;;;;;;;5082237;28;20016;-76
2022/04/06 10:33:42;;;;;;;3.85;0.38;;;;;;;;;;5079194;28;20016;-76
2022/04/06 10:36:23;;;;;;;1.25;0.47;;;;;;;;;;5095354;28;20026;-78
2022/04/06 10:39:04;;;;;;;0.30;0.30;;;;;;;;;;5075185;28;20093;-75
2022/04/06 10:41:30;;;;;;;2.85;0.30;;;;;;;;;;5078021;28;20260;-75
2022/04/06 10:43:56;;;;;;;3.58;0.50;;;;;;;;;;5082000;28;20342;-76
2022/04/06 10:46:38;;;;;;;0.98;0.32;;;;;;;;;;5084620;28;20267;-76
2022/04/06 10:49:06;;;;;;;5.93;0.68;;;;;;;;;;5094817;28;20095;-76
2022/04/06 10:51:37;;;;;;;1.10;0.20;;;;;;;;;;5076256;28;20012;-77
2022/04/06 10:54:12;;;;;;;1.00;0.47;;;;;;;;;;5083466;28;20025;-77
2022/04/06 10:57:03;;;;;;;2.95;0.30;;;;;;;;;;5081622;28;20278;-77
2022/04/06 10:59:29;;;;;;;2.78;0.45;;;;;;;;;;5076297;28;20028;-76
2022/04/06 11:02:14;;;;;;;4.78;0.68;;;;;;;;;;5098821;28;20324;-76
2022/04/06 11:04:40;;;;;;;2.38;0.65;;;;;;;;;;5085443;28;20020;-76
2022/04/06 11:07:08;;;;;;;4.78;0.82;;;;;;;;;;5079756;28;20084;-76
2022/04/06 11:12:30;;;;;;;6.45;1.08;;;;;;;;;;5077557;28;20012;-75
2022/04/06 11:14:59;;;;;;;5.50;0.57;;;;;;;;;;5081909;28;20078;-75
2022/04/06 11:17:32;;;;;;;4.38;0.68;;;;;;;;;;5080341;28;20016;-76
2022/04/06 11:19:59;;;;;;;6.68;0.45;;;;;;;;;;5081220;28;20040;-76
2022/04/06 11:22:25;;;;;;;4.60;0.73;;;;;;;;;;5095056;28;20516;-75
2022/04/06 11:24:51;;;;;;;7.93;0.90;;;;;;;;;;5084409;28;20033;-75
2022/04/06 11:27:30;;;;;;;4.28;0.82;;;;;;;;;;5078362;28;20020;-76
2022/04/06 11:30:07;;;;;;;10.68;1.15;;;;;;;;;;5090502;28;20460;-76
2022/04/06 11:32:34;;;;;;;3.70;0.65;;;;;;;;;;5084685;28;20016;-75
2022/04/06 11:35:07;;;;;;;7.47;1.08;;;;;;;;;;5079028;28;20174;-75
2022/04/06 11:38:00;;;;;;;4.70;0.63;;;;;;;;;;5093149;28;20023;-75
2022/04/06 11:40:27;;;;;;;4.82;0.63;;;;;;;;;;5074579;28;20301;-76
2022/04/06 11:42:54;;;;;;;6.05;0.73;;;;;;;;;;5061362;28;20366;-76
2022/04/06 11:45:28;;;;;;;5.10;0.88;;;;;;;;;;5080480;28;20012;-75
2022/04/06 11:47:59;;;;;;;4.05;0.57;;;;;;;;;;5080449;28;20083;-76
2022/04/06 11:50:33;;;;;;;2.30;0.30;;;;;;;;;;5078937;28;20100;-76
2022/04/06 11:53:15;;;;;;;4.68;0.70;;;;;;;;;;5079958;28;20005;-76
2022/04/06 11:55:48;;;;;;;1.67;0.35;;;;;;;;;;5076559;28;20211;-76
2022/04/06 11:58:39;;;;;;;2.40;0.30;;;;;;;;;;5061640;28;20020;-76
2022/04/06 12:01:18;;;;;;;3.97;0.60;;;;;;;;;;5086216;28;20074;-76
2022/04/06 12:03:46;;;;;;;5.07;0.60;;;;;;;;;;5080120;28;20020;-76
2022/04/06 12:06:15;;;;;;;0.93;0.40;;;;;;;;;;5083011;28;20013;-76
2022/04/06 12:08:44;;;;;;;6.32;0.75;;;;;;;;;;5100431;28;20008;-76
2022/04/06 12:11:09;;;;;;;6.90;0.52;;;;;;;;;;5083212;28;20035;-77
2022/04/06 12:13:39;;;;;;;4.95;0.80;;;;;;;;;;5081879;28;20278;-76
2022/04/06 12:16:06;;;;;;;2.47;0.40;;;;;;;;;;5084077;28;20023;-78
2022/04/06 12:18:32;;;;;;;7.63;0.63;;;;;;;;;;5085039;28;20512;-77
2022/04/06 12:20:59;;;;;;;4.30;0.70;;;;;;;;;;5084942;28;20059;-76
2022/04/06 12:23:26;;;;;;;4.30;0.93;;;;;;;;;;5080778;28;20020;-77
2022/04/06 12:25:59;;;;;;;2.25;0.75;;;;;;;;;;5084096;28;20319;-76
2022/04/06 12:28:27;;;;;;;3.47;0.93;;;;;;;;;;5085901;28;20029;-75
2022/04/06 12:31:31;;;;;;;7.50;0.82;;;;;;;;;;5084871;28;20025;-76
2022/04/06 12:33:56;;;;;;;3.83;0.52;;;;;;;;;;5102311;28;20022;-75
2022/04/06 12:36:32;;;;;;;2.70;0.70;;;;;;;;;;5087334;28;20040;-75
2022/04/06 12:39:21;;;;;;;2.97;0.90;;;;;;;;;;5080974;28;20020;-76
2022/04/06 12:42:02;;;;;;;7.63;0.77;;;;;;;;;;5082294;28;20030;-77
2022/04/06 12:44:29;;;;;;;3.85;0.90;;;;;;;;;;5081786;28;20036;-76
2022/04/06 12:46:54;;;;;;;2.92;0.52;;;;;;;;;;5083281;28;20023;-76
2022/04/06 12:49:24;;;;;;;1.40;0.40;;;;;;;;;;5086055;28;20219;-76
2022/04/06 12:52:17;;;;;;;4.72;0.80;;;;;;;;;;5078348;28;20039;-77
2022/04/06 12:55:00;;;;;;;2.83;0.60;;;;;;;;;;5087319;28;20020;-77
2022/04/06 12:57:25;;;;;;;2.65;0.50;;;;;;;;;;5083549;28;20026;-77
2022/04/06 13:00:19;;;;;;;2.47;0.65;;;;;;;;;;5086700;28;20020;-76
2022/04/06 13:02:52;;;;;;;4.45;0.55;;;;;;;;;;5082403;28;20020;-77
2022/04/06 13:05:20;;;;;;;1.85;0.45;;;;;;;;;;5088602;28;20028;-76
2022/04/06 13:07:48;;;;;;;6.82;0.93;;;;;;;;;;5072521;28;20066;-73
2022/04/06 13:10:21;;;;;;;6.05;0.95;;;;;;;;;;5084190;28;20077;-74
2022/04/06 13:12:47;;;;;;;;;;;;;;;;;;5083601;28;20267;-75
2022/04/06 13:15:14;;;;;;;9.80;1.95;;;;;;;;;;5082920;28;19942;-75
2022/04/06 13:17:41;;;;;;;5.05;0.63;;;;;;;;;;5084156;28;20039;-75
2022/04/06 13:20:09;;;;;;;2.88;0.60;;;;;;;;;;5086133;28;20032;-76
2022/04/06 13:22:36;;;;;;;3.00;0.40;;;;;;;;;;5082163;28;20032;-75
2022/04/06 13:25:02;;;;;;;5.00;0.88;;;;;;;;;;5101996;28;20036;-74
2022/04/06 13:27:28;;;;;;;4.78;1.45;;;;;;;;;;5062061;28;20073;-74
2022/04/06 13:29:53;;;;;;;4.13;0.57;;;;;;;;;;5085026;28;20068;-75
2022/04/06 13:32:19;;;;;;;7.45;0.95;;;;;;;;;;5067157;28;20095;-76
2022/04/06 13:34:45;;;;;;;7.70;0.70;;;;;;;;;;5046933;28;20032;-75
2022/04/06 13:37:11;;;;;;;4.95;0.70;;;;;;;;;;5086733;28;20032;-75
2022/04/06 13:39:37;;;;;;;7.90;0.90;;;;;;;;;;5084155;28;20013;-76
2022/04/06 13:42:05;;;;;;;3.17;0.80;;;;;;;;;;5082435;28;20042;-75
2022/04/06 13:44:33;;;;;;;6.10;0.68;;;;;;;;;;5065207;28;20033;-75
2022/04/06 13:47:00;;;;;;;3.35;0.75;;;;;;;;;;5087551;28;20036;-75
2022/04/06 13:49:25;;;;;;;6.53;0.95;;;;;;;;;;5083173;28;20012;-76
2022/04/06 13:51:51;;;;;;;7.13;1.08;;;;;;;;;;5067779;28;20024;-75
2022/04/06 13:54:22;;;;;;;7.78;0.90;;;;;;;;;;5088666;28;20020;-76
2022/04/06 13:56:48;;;;;;;6.75;0.95;;;;;;;;;;5086447;28;20066;-75
2022/04/06 13:59:14;;;;;;;7.90;0.90;;;;;;;;;;5065761;28;20021;-75
2022/04/06 14:01:40;;;;;;;4.75;0.60;;;;;;;;;;5088962;28;20036;-76
2022/04/06 14:04:06;;;;;;;5.03;0.90;;;;;;;;;;5084151;28;20028;-76
2022/04/06 14:06:32;;;;;;;6.60;0.90;;;;;;;;;;5073293;28;20267;-76
2022/04/06 14:08:58;;;;;;;9.02;1.30;;;;;;;;;;5082981;28;20024;-75
2022/04/06 14:11:25;;;;;;;9.15;1.02;;;;;;;;;;5086787;28;20015;-76
2022/04/06 14:13:51;;;;;;;4.38;1.17;;;;;;;;;;5085232;28;20214;-75
2022/04/06 14:16:18;;;;;;;10.90;1.63;;;;;;;;;;5084328;28;20012;-76
2022/04/06 14:18:45;;;;;;;5.03;0.75;;;;;;;;;;5082956;28;20103;-77
2022/04/06 14:21:14;;;;;;;5.18;1.27;;;;;;;;;;5084655;28;20070;-75
2022/04/06 14:23:41;;;;;;;2.00;1.00;;;;;;;;;;5079562;28;20291;-76
2022/04/06 14:26:10;;;;;;;5.93;0.75;;;;;;;;;;5086353;28;20274;-76
2022/04/06 14:28:38;;;;;;;5.93;1.98;;;;;;;;;;5106411;28;20024;-76
2022/04/06 14:31:04;;;;;;;3.75;0.70;;;;;;;;;;5086454;28;20020;-75
2022/04/06 14:33:30;;;;;;;7.18;0.73;;;;;;;;;;5081853;28;20306;-75
2022/04/06 14:35:56;;;;;;;10.05;0.77;;;;;;;;;;5084280;28;20271;-74
2022/04/06 14:38:21;;;;;;;13.88;1.48;;;;;;;;;;5086886;28;20048;-76
2022/04/06 14:40:47;;;;;;;7.82;1.15;;;;;;;;;;5074721;28;20070;-75
2022/04/06 14:43:16;;;;;;;7.97;1.13;;;;;;;;;;5095366;28;20039;-75
2022/04/06 14:45:43;;;;;;;5.72;0.80;;;;;;;;;;5074211;28;20275;-76
2022/04/06 14:48:12;;;;;;;4.57;0.93;;;;;;;;;;5078173;28;20048;-75
2022/04/06 14:50:40;;;;;;;8.00;1.23;;;;;;;;;;5077572;28;20057;-75
2022/04/06 14:53:07;;;;;;;6.95;1.20;;;;;;;;;;5080000;28;20017;-73
2022/04/06 14:55:36;;;;;;;15.63;1.80;;;;;;;;;;5086728;28;20004;-74
2022/04/06 14:58:02;;;;;;;5.45;0.77;;;;;;;;;;5065854;28;20020;-75